Airfield :
LOGIN :

Register | Disclaimer

   EN    FR    IT 

 










Legend :    VFR   Marginal VFR   IFR   Intensive IFR   Very Intensive IFR
Visi :
Ceiling :
>= 8 km
>= 3000ft
5 to 8 km
1000 to 3000 ft
1500m to 5 km
500 to 1000 ft
800 to 1500m
200 to 500 ft
< 800m
< 200 ft
Symbols :   Thunderstorms  Fog  Heavy snow  Heavy precipitations  Wind > 20 kt
SIGMETs :     Misc.  Thunderstorms  Icing  Turbulence  Mountain Waves  Volcanic Ashes






- Airport Elevation : 138 ft
- IATA code : BIO


LEBB - Bilbao

CURRENT METAR :
  • 121130Z 29005KT 260V320 9999 SCT037 BKN050 12/09 Q1015 TEMPO 3000 RA

EXPIRED METARs :
  • 121100Z 26005KT 210V300 9999 -DZ SCT033 BKN042 12/08 Q1015 TEMPO 3000 RA
  • 121030Z 26004KT 220V290 9999 SCT033 BKN040 12/08 Q1015 TEMPO 3000 RA
  • 121000Z 25004KT 200V290 9999 BKN034 12/08 Q1015 TEMPO 3000 RA
  • 120930Z VRB02KT 9999 FEW034 BKN060 11/10 Q1016 TEMPO 3000 RA
  • 120900Z 00000KT 9999 BKN034 10/09 Q1016 TEMPO 3000 RA

TAF TAF LEBB
Valid from the 12 at 12:00 until the 13 at 12:00 UTC


121100Z 1212/1312 24009KT 9999 SCT025 BKN035 TX13/1215Z TN08/1306Z
PROB40
TEMPO 1215/1224 14010KT
BECMG 1302/1305 36010KT
TEMPO 1212/1309 3000 RA SHRA BKN010 BKN014 SCT030TCU
TEMPO 1221/1303 1500 +RA BKN005



MET'MAP, your aeronautical weather chart ! - Copyright ORBIFLY December 2007 - Disclaimer

ORBIFLY MET'MAP TEAM :

Programming & Development : Alexandra Zaïnal
Concept & Development : Baudouin d'Aumeries
Co-Development & Prog : Marc-Olivier Méhu
Technical & hardware support : Manuel Goepfert

Contact : metmap@orbifly.com




SOURCES & CREDITS :

   NOAA